Time;durP1;ratioP1;P1;durP2;ratioP2;P2;SDS_P1;SDS_P2;PMS_P1;PMS_P2;Temp;Humidity;BMP_temperature;BMP_pressure;BME280_temperature;BME280_humidity;BME280_pressure;Samples;Min_cycle;Max_cycle;Signal;HPM_P1;HPM_P2
2023/02/20 00:01:38;;;;;;;12.65;7.75;;;5.70;99.90;;;-148.53;100.00;63986.66;5009093;28;20098;-75
2023/02/20 00:04:04;;;;;;;15.02;8.10;;;5.70;99.90;;;-148.53;100.00;63986.66;5007048;28;20534;-76
2023/02/20 00:06:29;;;;;;;14.90;7.85;;;5.70;99.90;;;-148.53;100.00;63986.66;5012330;28;20140;-75
2023/02/20 00:08:55;;;;;;;16.17;8.10;;;5.70;99.90;;;-148.53;100.00;63986.66;5013230;28;20046;-75
2023/02/20 00:11:21;;;;;;;14.82;8.43;;;5.70;99.90;;;-148.53;100.00;63986.66;5008864;28;20034;-75
2023/02/20 00:13:48;;;;;;;12.38;7.35;;;5.70;99.90;;;-148.53;100.00;63986.66;5001475;28;20072;-75
2023/02/20 00:16:15;;;;;;;15.77;8.38;;;5.80;99.90;;;-148.53;100.00;63986.66;5012201;28;20117;-76
2023/02/20 00:18:40;;;;;;;12.68;7.28;;;5.90;99.90;;;-148.53;100.00;63986.66;5005523;28;20486;-77
2023/02/20 00:21:06;;;;;;;10.10;6.75;;;5.90;99.90;;;-148.53;100.00;63986.66;5007076;28;20042;-76
2023/02/20 00:23:33;;;;;;;11.27;7.50;;;6.00;99.90;;;-148.53;100.00;63986.66;5006595;28;20496;-76
2023/02/20 00:25:59;;;;;;;11.25;6.78;;;6.10;99.90;;;-148.53;100.00;63986.66;5001417;28;20393;-76
2023/02/20 00:28:25;;;;;;;10.65;6.45;;;6.10;99.90;;;-148.53;100.00;63986.66;5005325;28;20045;-74
2023/02/20 00:30:51;;;;;;;9.85;6.38;;;6.20;99.90;;;-148.53;100.00;63986.66;5007566;28;20034;-75
2023/02/20 00:33:16;;;;;;;9.38;6.28;;;6.20;99.90;;;-148.53;100.00;63986.66;5012062;28;20053;-75
2023/02/20 00:35:42;;;;;;;10.18;6.72;;;6.30;99.90;;;-148.53;100.00;63986.66;5006937;28;20048;-75
2023/02/20 00:38:08;;;;;;;10.95;6.00;;;6.30;99.90;;;-148.53;100.00;63986.66;5000500;28;20084;-75
2023/02/20 00:40:33;;;;;;;9.20;5.88;;;6.30;99.90;;;-148.53;100.00;63986.66;5003673;28;20038;-75
2023/02/20 00:43:01;;;;;;;10.00;5.93;;;6.40;99.90;;;-148.53;100.00;63986.66;5003614;28;20085;-75
2023/02/20 00:45:26;;;;;;;9.07;6.10;;;6.40;99.90;;;-148.53;100.00;63986.66;5008590;28;20084;-75
2023/02/20 00:47:54;;;;;;;8.80;5.82;;;6.40;99.90;;;-148.53;100.00;63986.66;5018188;28;20034;-75
2023/02/20 00:50:20;;;;;;;9.82;5.75;;;6.40;99.90;;;-148.53;100.00;63986.66;5021277;28;20038;-75
2023/02/20 00:52:46;;;;;;;9.18;5.80;;;6.40;99.90;;;-148.53;100.00;63986.66;5004777;28;20470;-76
2023/02/20 00:55:12;;;;;;;9.35;5.93;;;6.40;99.90;;;-148.53;100.00;63986.66;5006639;28;20033;-75
2023/02/20 00:57:38;;;;;;;8.55;5.70;;;6.40;99.90;;;-148.53;100.00;63986.66;5002526;28;20371;-76
2023/02/20 01:00:07;;;;;;;9.55;5.65;;;6.40;99.90;;;-148.53;100.00;63986.66;4993765;28;20026;-76
2023/02/20 01:02:33;;;;;;;10.95;5.88;;;6.40;99.90;;;-148.53;100.00;63986.66;4999271;28;20094;-76
2023/02/20 01:04:58;;;;;;;9.65;6.05;;;6.40;99.90;;;-148.53;100.00;63986.66;5019510;28;20033;-75
2023/02/20 01:07:24;;;;;;;8.43;5.65;;;6.40;99.90;;;-148.53;100.00;63986.66;5017114;28;20415;-75
2023/02/20 01:09:50;;;;;;;9.32;6.25;;;6.40;99.90;;;-148.53;100.00;63986.66;5023335;28;20038;-76
2023/02/20 01:12:16;;;;;;;9.35;5.50;;;6.40;99.90;;;-148.53;100.00;63986.66;5012798;28;20034;-75
2023/02/20 01:14:42;;;;;;;9.30;5.97;;;6.40;99.90;;;-148.53;100.00;63986.66;5003992;28;20038;-75
2023/02/20 01:17:07;;;;;;;10.45;6.38;;;6.40;99.90;;;-148.53;100.00;63986.66;5008545;28;20051;-75
2023/02/20 01:19:33;;;;;;;8.77;5.75;;;6.40;99.90;;;-148.53;100.00;63986.66;4997577;28;20122;-74
2023/02/20 01:21:59;;;;;;;9.05;5.82;;;6.40;99.90;;;-148.53;100.00;63986.66;5025092;28;20041;-75
2023/02/20 01:24:25;;;;;;;9.90;6.03;;;6.40;99.90;;;-148.53;100.00;63986.66;5007698;28;20375;-75
2023/02/20 01:26:51;;;;;;;7.95;5.40;;;6.50;99.90;;;-148.53;100.00;63986.66;4999263;28;20041;-75
2023/02/20 01:29:17;;;;;;;9.75;5.75;;;6.50;99.90;;;-148.53;100.00;63986.66;4994802;28;20022;-75
2023/02/20 01:31:50;;;;;;;9.10;5.97;;;6.50;99.90;;;-148.53;100.00;63986.66;5001120;28;20046;-75
2023/02/20 01:34:18;;;;;;;8.30;5.57;;;6.50;99.90;;;-148.53;100.00;63986.66;5016777;28;20132;-75
2023/02/20 01:36:49;;;;;;;8.38;5.43;;;6.50;99.90;;;-148.53;100.00;63986.66;5000922;28;20037;-75
2023/02/20 01:39:22;;;;;;;6.72;4.97;;;6.50;99.90;;;-148.53;100.00;63986.66;5001691;28;20502;-75
2023/02/20 01:41:54;;;;;;;9.02;5.53;;;6.50;99.90;;;-148.53;100.00;63986.66;5012812;28;20109;-75
2023/02/20 01:44:25;;;;;;;9.80;5.20;;;6.40;99.90;;;-148.53;100.00;63986.66;4994045;28;20038;-75
2023/02/20 01:46:58;;;;;;;8.52;5.10;;;6.40;99.90;;;-148.53;100.00;63986.66;4997142;28;20169;-75
2023/02/20 01:49:50;;;;;;;8.32;5.30;;;6.40;99.90;;;-148.53;100.00;63986.66;5020739;28;20042;-76
2023/02/20 01:52:30;;;;;;;7.15;4.70;;;6.30;99.90;;;-148.53;100.00;63986.66;5001284;28;20030;-75
2023/02/20 01:55:24;;;;;;;8.40;5.25;;;6.30;99.90;;;-148.53;100.00;63986.66;4998742;28;20038;-77
2023/02/20 01:58:04;;;;;;;8.05;4.85;;;6.30;99.90;;;-148.53;100.00;63986.66;5001939;28;20093;-76
2023/02/20 02:00:31;;;;;;;7.93;5.25;;;6.30;99.90;;;-148.53;100.00;63986.66;4998607;28;20060;-76
2023/02/20 02:03:24;;;;;;;6.47;4.57;;;6.30;99.90;;;-148.53;100.00;63986.66;5000223;28;20030;-76
2023/02/20 02:05:59;;;;;;;8.18;4.70;;;6.30;99.90;;;-148.53;100.00;63986.66;4996524;28;20113;-76
2023/02/20 02:08:27;;;;;;;7.85;5.10;;;6.20;99.90;;;-148.53;100.00;63986.66;5008424;28;20065;-75
2023/02/20 02:11:07;;;;;;;6.45;4.40;;;6.10;99.90;;;-148.53;100.00;63986.66;4999098;28;20303;-75
2023/02/20 02:13:37;;;;;;;7.38;4.85;;;6.10;99.90;;;-148.53;100.00;63986.66;4980681;28;20045;-75
2023/02/20 02:17:11;;;;;;;7.90;4.97;;;6.00;99.90;;;-148.53;100.00;63986.66;5002963;28;20030;-76
2023/02/20 02:20:04;;;;;;;8.15;5.22;;;6.10;99.90;;;-148.53;100.00;63986.66;5009414;28;20152;-75
2023/02/20 02:23:06;;;;;;;9.43;5.20;;;6.10;99.90;;;-148.53;100.00;63986.66;4992108;28;20028;-76
2023/02/20 02:25:47;;;;;;;8.15;5.22;;;6.00;99.90;;;-148.53;100.00;63986.66;5003683;28;20067;-75
2023/02/20 02:28:53;;;;;;;9.85;5.70;;;6.10;99.90;;;-148.53;100.00;63986.66;5009387;28;20104;-75
2023/02/20 02:31:48;;;;;;;8.35;5.30;;;6.00;99.90;;;-148.53;100.00;63986.66;4997713;28;20126;-75
2023/02/20 02:35:07;;;;;;;9.52;5.97;;;6.00;99.90;;;-148.53;100.00;63986.66;4992637;28;20915;-76
2023/02/20 02:37:55;;;;;;;10.23;5.47;;;6.00;99.90;;;-148.53;100.00;63986.66;4998171;28;20398;-76
2023/02/20 02:40:41;;;;;;;9.77;5.63;;;5.90;99.90;;;-148.53;100.00;63986.66;4995797;28;20482;-75
2023/02/20 02:43:54;;;;;;;8.88;5.63;;;5.80;99.90;;;-148.53;100.00;63986.66;5013616;28;20057;-75
2023/02/20 02:46:48;;;;;;;8.02;5.32;;;5.80;99.90;;;-148.53;100.00;63986.66;5002321;28;20052;-76
2023/02/20 02:49:39;;;;;;;9.55;6.40;;;5.80;99.90;;;-148.53;100.00;63986.66;4991974;28;20041;-75
2023/02/20 02:52:09;;;;;;;8.88;5.65;;;5.80;99.90;;;-148.53;100.00;63986.66;5020724;28;20046;-76
2023/02/20 02:54:35;;;;;;;9.30;5.85;;;5.70;99.90;;;-148.53;100.00;63986.66;5000392;28;20046;-75
2023/02/20 02:57:25;;;;;;;9.57;5.90;;;5.70;99.90;;;-148.53;100.00;63986.66;5011779;28;20485;-75
2023/02/20 03:00:01;;;;;;;11.32;6.43;;;5.60;99.90;;;-148.53;100.00;63986.66;4997421;28;20033;-75
2023/02/20 03:02:48;;;;;;;10.10;6.65;;;5.70;99.90;;;-148.53;100.00;63986.66;4996779;28;20131;-75
2023/02/20 03:05:21;;;;;;;10.20;6.47;;;5.70;99.90;;;-148.53;100.00;63986.66;4994991;28;20068;-75
2023/02/20 03:07:56;;;;;;;11.00;6.57;;;5.80;99.90;;;-148.53;100.00;63986.66;4996936;28;20367;-75
2023/02/20 03:10:30;;;;;;;10.95;6.82;;;5.80;99.90;;;-148.53;100.00;63986.66;5002915;28;20022;-76
2023/02/20 03:13:04;;;;;;;9.63;6.50;;;5.80;99.90;;;-148.53;100.00;63986.66;5023255;28;20397;-76
2023/02/20 03:15:45;;;;;;;9.43;6.57;;;5.80;99.90;;;-148.53;100.00;63986.66;5012656;28;20525;-75
2023/02/20 03:18:36;;;;;;;12.30;7.53;;;5.90;99.90;;;-148.53;100.00;63986.66;5008162;28;20508;-75
2023/02/20 03:21:13;;;;;;;11.40;7.60;;;5.90;99.90;;;-148.53;100.00;63986.66;5002580;28;20120;-75
2023/02/20 03:23:44;;;;;;;11.18;7.28;;;5.80;99.90;;;-148.53;100.00;63986.66;5012233;28;20036;-75
2023/02/20 03:26:21;;;;;;;13.18;7.75;;;5.80;99.90;;;-148.53;100.00;63986.66;5006337;28;20046;-75
2023/02/20 03:29:02;;;;;;;11.80;7.50;;;5.80;99.90;;;-148.53;100.00;63986.66;5021647;28;20030;-76
2023/02/20 03:31:44;;;;;;;14.02;8.43;;;6.00;99.90;;;-148.53;100.00;63986.66;5011633;28;20045;-75
2023/02/20 03:43:20;;;;;;;11.48;7.70;;;6.10;99.90;;;-148.53;100.00;63986.66;5007776;28;20046;-75
2023/02/20 03:45:48;;;;;;;13.93;8.65;;;6.10;99.90;;;-148.53;100.00;63986.66;5002520;28;20033;-75
2023/02/20 03:48:28;;;;;;;12.70;8.77;;;6.10;99.90;;;-148.53;100.00;63986.66;5008078;28;20528;-75
2023/02/20 03:50:56;;;;;;;16.00;9.93;;;6.10;99.90;;;-148.53;100.00;63986.66;5021507;28;20026;-76
2023/02/20 03:53:25;;;;;;;14.93;9.85;;;6.20;99.90;;;-148.53;100.00;63986.66;4998572;28;20394;-75
2023/02/20 03:55:57;;;;;;;13.82;9.45;;;6.10;99.90;;;-148.53;100.00;63986.66;5002652;28;20089;-75
2023/02/20 03:58:26;;;;;;;15.20;9.95;;;6.20;99.90;;;-148.53;100.00;63986.66;5005763;28;22140;-76
2023/02/20 04:00:59;;;;;;;14.52;10.27;;;6.20;99.90;;;-148.53;100.00;63986.66;5011949;28;20184;-76
2023/02/20 04:03:32;;;;;;;16.00;11.60;;;6.20;99.90;;;-148.53;100.00;63986.66;5010976;28;20137;-78
2023/02/20 04:06:03;;;;;;;16.77;12.10;;;6.20;99.90;;;-148.53;100.00;63986.66;5003421;28;20168;-76
2023/02/20 04:08:44;;;;;;;19.90;12.38;;;6.20;99.90;;;-148.53;100.00;63986.66;5011643;28;20022;-74
2023/02/20 04:11:48;;;;;;;18.70;12.88;;;6.20;99.90;;;-148.53;100.00;63986.66;4990914;28;20040;-75
2023/02/20 04:14:19;;;;;;;19.15;13.80;;;6.20;99.90;;;-148.53;100.00;63986.66;5004344;28;20034;-76
2023/02/20 04:17:00;;;;;;;21.08;14.63;;;6.20;99.90;;;-148.53;100.00;63986.66;4996320;28;20030;-75
2023/02/20 04:19:26;;;;;;;19.75;14.07;;;6.30;99.90;;;-148.53;100.00;63986.66;5001134;28;20109;-75
2023/02/20 04:21:58;;;;;;;21.13;15.05;;;6.30;99.90;;;-148.53;100.00;63986.66;4995855;28;20053;-76
2023/02/20 04:24:34;;;;;;;23.38;15.85;;;6.30;99.90;;;-148.53;100.00;63986.66;5002351;28;20124;-77
2023/02/20 04:27:01;;;;;;;25.33;15.85;;;6.40;99.90;;;-148.53;100.00;63986.66;5020332;28;20115;-75
2023/02/20 04:29:28;;;;;;;24.37;16.23;;;6.40;99.90;;;-148.53;100.00;63986.66;5008660;28;20469;-73
2023/02/20 04:31:55;;;;;;;;;;;6.40;99.90;;;-148.53;100.00;63986.66;4995646;28;20034;-74
2023/02/20 04:34:24;;;;;;;24.08;15.57;;;6.40;99.90;;;-148.53;100.00;63986.66;5006355;28;19971;-76
2023/02/20 04:37:05;;;;;;;24.00;15.77;;;6.40;99.90;;;-148.53;100.00;63986.66;5010055;28;20590;-77
2023/02/20 04:39:31;;;;;;;24.73;15.55;;;6.40;99.90;;;-148.53;100.00;63986.66;5009187;28;20042;-75
2023/02/20 04:41:58;;;;;;;23.67;16.35;;;6.50;99.90;;;-148.53;100.00;63986.66;5005835;28;20034;-74
2023/02/20 04:44:30;;;;;;;21.85;14.82;;;6.50;99.90;;;-148.53;100.00;63986.66;4998454;28;20083;-76
2023/02/20 04:47:01;;;;;;;25.13;15.20;;;6.40;99.90;;;-148.53;100.00;63986.66;5011611;28;20038;-74
2023/02/20 04:49:27;;;;;;;24.58;16.05;;;6.40;99.90;;;-148.53;100.00;63986.66;5005629;28;20033;-74
2023/02/20 04:51:55;;;;;;;23.15;15.57;;;6.50;99.90;;;-148.53;100.00;63986.66;5026107;28;20037;-74
2023/02/20 04:54:21;;;;;;;26.27;16.13;;;6.40;99.90;;;-148.53;100.00;63986.66;5005496;28;20038;-75
2023/02/20 04:56:47;;;;;;;31.35;16.83;;;6.40;99.90;;;-148.53;100.00;63986.66;4997293;28;20025;-75
2023/02/20 04:59:14;;;;;;;21.13;15.27;;;6.40;99.90;;;-148.53;100.00;63986.66;5017108;28;20126;-75
2023/02/20 05:01:41;;;;;;;23.83;15.18;;;6.40;99.90;;;-148.53;100.00;63986.66;4997304;28;20026;-74
2023/02/20 05:04:07;;;;;;;28.05;16.98;;;6.40;99.90;;;-148.53;100.00;63986.66;5006383;28;20038;-74
2023/02/20 05:06:38;;;;;;;21.80;15.07;;;6.40;99.90;;;-148.53;100.00;63986.66;4997600;28;20057;-75
2023/02/20 05:09:05;;;;;;;23.85;15.02;;;6.40;99.90;;;-148.53;100.00;63986.66;5006734;28;20045;-75
2023/02/20 05:11:31;;;;;;;24.40;15.57;;;6.40;99.90;;;-148.53;100.00;63986.66;5017633;28;20061;-74
2023/02/20 05:13:56;;;;;;;25.48;15.63;;;6.40;99.90;;;-148.53;100.00;63986.66;5011929;28;20037;-75
2023/02/20 05:16:22;;;;;;;22.67;14.63;;;6.40;99.90;;;-148.53;100.00;63986.66;5002464;28;20469;-74
2023/02/20 05:18:48;;;;;;;21.15;14.75;;;6.50;99.90;;;-148.53;100.00;63986.66;4993598;28;20038;-75
2023/02/20 05:23:58;;;;;;;25.00;14.55;;;6.50;99.90;;;-148.53;100.00;63986.66;5005472;28;20132;-74
2023/02/20 05:26:24;;;;;;;21.70;14.40;;;6.50;99.90;;;-148.53;100.00;63986.66;4998976;28;20034;-74
2023/02/20 05:28:50;;;;;;;21.58;13.35;;;6.60;99.90;;;-148.53;100.00;63986.66;5009457;28;20042;-74
2023/02/20 05:31:15;;;;;;;23.30;14.07;;;6.50;99.90;;;-148.53;100.00;63986.66;5021468;28;20040;-74
2023/02/20 05:33:41;;;;;;;21.88;14.40;;;6.60;99.90;;;-148.53;100.00;63986.66;5010000;28;20037;-74
2023/02/20 05:36:07;;;;;;;21.80;13.85;;;6.50;99.90;;;-148.53;100.00;63986.66;5012835;28;20034;-75
2023/02/20 05:38:33;;;;;;;20.33;13.60;;;6.50;99.90;;;-148.53;100.00;63986.66;4995253;28;20050;-74
2023/02/20 05:40:58;;;;;;;20.42;13.10;;;6.50;99.90;;;-148.53;100.00;63986.66;5009697;28;20445;-74
2023/02/20 05:43:24;;;;;;;20.48;12.13;;;6.60;99.90;;;-148.53;100.00;63986.66;5004503;28;20053;-75
2023/02/20 05:45:50;;;;;;;19.27;12.10;;;6.50;99.90;;;-148.53;100.00;63986.66;5003084;28;20075;-75
2023/02/20 05:48:16;;;;;;;20.80;11.70;;;6.60;99.90;;;-148.53;100.00;63986.66;4991342;28;20105;-75
2023/02/20 05:50:41;;;;;;;19.80;11.35;;;6.60;99.90;;;-148.53;100.00;63986.66;5004711;28;20046;-74
2023/02/20 05:53:16;;;;;;;17.23;10.70;;;6.60;99.90;;;-148.53;100.00;63986.66;5003279;28;20033;-73
2023/02/20 05:55:42;;;;;;;20.20;11.25;;;6.60;99.90;;;-148.53;100.00;63986.66;5003826;28;20034;-74
2023/02/20 05:58:07;;;;;;;20.75;11.40;;;6.60;99.90;;;-148.53;100.00;63986.66;4997149;28;20163;-75
2023/02/20 06:00:33;;;;;;;17.08;10.63;;;6.70;99.90;;;-148.53;100.00;63986.66;5003042;28;20049;-73
2023/02/20 06:02:59;;;;;;;15.77;9.27;;;6.60;99.90;;;-148.53;100.00;63986.66;5006557;28;22089;-73
2023/02/20 06:05:25;;;;;;;18.60;10.25;;;6.60;99.90;;;-148.53;100.00;63986.66;5004754;28;20050;-73
2023/02/20 06:07:51;;;;;;;17.70;9.63;;;6.70;99.90;;;-148.53;100.00;63986.66;5006387;28;20046;-74
2023/02/20 06:10:18;;;;;;;16.27;8.77;;;6.70;99.90;;;-148.53;100.00;63986.66;5011925;28;20044;-74
2023/02/20 06:12:44;;;;;;;18.65;8.35;;;6.80;99.90;;;-148.53;100.00;63986.66;5008265;28;20080;-74
2023/02/20 06:15:09;;;;;;;17.45;8.57;;;6.70;99.90;;;-148.53;100.00;63986.66;4997625;28;20087;-74
2023/02/20 06:17:35;;;;;;;17.42;7.70;;;6.80;99.90;;;-148.53;100.00;63986.66;5001046;28;20454;-73
2023/02/20 06:20:01;;;;;;;15.60;8.35;;;6.80;99.90;;;-148.53;100.00;63986.66;5000671;28;20053;-73
2023/02/20 06:22:26;;;;;;;17.77;7.50;;;6.90;99.90;;;-148.53;100.00;63986.66;5005007;28;20030;-74
2023/02/20 06:24:52;;;;;;;15.15;7.82;;;6.80;99.90;;;-148.53;100.00;63986.66;5007961;28;20042;-74
2023/02/20 06:27:18;;;;;;;14.30;7.35;;;6.90;99.90;;;-148.53;100.00;63986.66;5004624;28;20026;-74
2023/02/20 06:29:46;;;;;;;19.08;8.07;;;6.90;99.90;;;-148.53;100.00;63986.66;5001707;28;20049;-75
2023/02/20 06:32:12;;;;;;;13.40;7.25;;;6.90;99.90;;;-148.53;100.00;63986.66;4998830;28;20061;-74
2023/02/20 06:34:38;;;;;;;13.50;7.50;;;6.90;99.90;;;-148.53;100.00;63986.66;5003874;28;20038;-74
2023/02/20 06:37:04;;;;;;;16.23;6.68;;;7.00;99.90;;;-148.53;100.00;63986.66;5000756;28;20066;-75
2023/02/20 06:39:31;;;;;;;12.50;6.72;;;6.90;99.90;;;-148.53;100.00;63986.66;5003245;28;20034;-74
2023/02/20 06:41:57;;;;;;;14.55;6.45;;;7.00;99.90;;;-148.53;100.00;63986.66;5005148;28;20077;-74
2023/02/20 06:44:23;;;;;;;14.15;6.40;;;7.00;99.90;;;-148.53;100.00;63986.66;5020862;28;20050;-74
2023/02/20 06:46:49;;;;;;;11.23;6.00;;;7.00;99.90;;;-148.53;100.00;63986.66;5016713;28;20065;-74
2023/02/20 06:49:15;;;;;;;13.80;6.20;;;7.00;99.90;;;-148.53;100.00;63986.66;5006952;28;20065;-74
2023/02/20 06:51:41;;;;;;;15.88;6.40;;;7.10;99.90;;;-148.53;100.00;63986.66;5005713;28;20076;-74
2023/02/20 06:54:10;;;;;;;12.85;5.78;;;7.20;99.90;;;-148.53;100.00;63986.66;5013591;28;20042;-74
2023/02/20 06:56:35;;;;;;;13.30;6.80;;;7.20;99.90;;;-148.53;100.00;63986.66;5005428;28;20046;-74
2023/02/20 06:59:05;;;;;;;11.75;5.75;;;7.20;99.90;;;-148.53;100.00;63986.66;5002292;28;20049;-75
2023/02/20 07:01:42;;;;;;;16.77;6.15;;;7.30;99.90;;;-148.53;100.00;63986.66;5004097;28;20042;-76
2023/02/20 07:04:25;;;;;;;12.93;5.65;;;7.30;99.90;;;-148.53;100.00;63986.66;5008872;28;20164;-76
2023/02/20 07:06:51;;;;;;;16.17;6.68;;;7.40;99.90;;;-148.53;100.00;63986.66;4992675;28;20038;-75
2023/02/20 07:09:18;;;;;;;10.80;5.60;;;7.50;99.90;;;-148.53;100.00;63986.66;4997893;28;20045;-75
2023/02/20 07:11:43;;;;;;;10.40;5.93;;;7.50;99.90;;;-148.53;100.00;63986.66;5021519;28;20046;-77
2023/02/20 07:14:09;;;;;;;14.90;6.07;;;7.60;99.90;;;-148.53;100.00;63986.66;5013865;28;20045;-74
2023/02/20 07:16:35;;;;;;;10.23;5.47;;;7.60;99.90;;;-148.53;100.00;63986.66;5004361;28;20030;-77
2023/02/20 07:19:01;;;;;;;14.77;5.95;;;7.60;99.90;;;-148.53;100.00;63986.66;5004490;28;20040;-75
2023/02/20 07:21:26;;;;;;;14.13;6.35;;;7.60;99.90;;;-148.53;100.00;63986.66;4994034;28;20482;-75
2023/02/20 07:23:52;;;;;;;12.20;5.88;;;7.60;99.90;;;-148.53;100.00;63986.66;5005697;28;20465;-75
2023/02/20 07:26:22;;;;;;;13.85;6.35;;;7.60;99.90;;;-148.53;100.00;63986.66;5002120;28;20053;-76
2023/02/20 07:28:47;;;;;;;13.63;6.18;;;7.60;99.90;;;-148.53;100.00;63986.66;5014699;28;20127;-76
2023/02/20 07:31:13;;;;;;;14.23;5.93;;;7.60;99.90;;;-148.53;100.00;63986.66;4999353;28;20034;-76
2023/02/20 07:33:42;;;;;;;12.02;5.88;;;7.70;99.90;;;-148.53;100.00;63986.66;5002411;28;20084;-75
2023/02/20 07:36:15;;;;;;;14.00;6.47;;;7.70;99.90;;;-148.53;100.00;63986.66;5006247;28;20138;-74
2023/02/20 07:38:41;;;;;;;13.27;5.68;;;7.80;99.90;;;-148.53;100.00;63986.66;5005388;28;20537;-74
2023/02/20 07:41:13;;;;;;;12.27;6.22;;;7.70;99.90;;;-148.53;100.00;63986.66;5005975;28;20117;-74
2023/02/20 07:43:39;;;;;;;11.95;5.18;;;7.70;99.90;;;-148.53;100.00;63986.66;5003723;28;20033;-74
2023/02/20 07:46:06;;;;;;;10.77;6.57;;;7.80;99.90;;;-148.53;100.00;63986.66;4999039;28;20044;-74
2023/02/20 07:48:33;;;;;;;14.80;6.85;;;7.80;99.90;;;-148.53;100.00;63986.66;5003398;28;20494;-74
2023/02/20 07:50:59;;;;;;;14.07;6.68;;;7.80;99.90;;;-148.53;100.00;63986.66;5016355;28;20053;-75
2023/02/20 07:53:24;;;;;;;14.63;7.43;;;7.80;99.90;;;-148.53;100.00;63986.66;5002957;28;20038;-75
2023/02/20 07:55:50;;;;;;;16.15;7.43;;;7.70;99.90;;;-148.53;100.00;63986.66;5007803;28;20137;-74
2023/02/20 07:58:16;;;;;;;13.70;7.38;;;7.70;99.90;;;-148.53;100.00;63986.66;4997194;28;20030;-75
2023/02/20 08:00:41;;;;;;;13.82;7.28;;;7.70;99.90;;;-148.53;100.00;63986.66;5002237;28;20418;-76
2023/02/20 08:03:07;;;;;;;15.48;7.80;;;7.80;99.90;;;-148.53;100.00;63986.66;5005076;28;20029;-74
2023/02/20 08:05:33;;;;;;;16.13;7.38;;;7.80;99.90;;;-148.53;100.00;63986.66;5002961;28;20050;-74
2023/02/20 08:07:58;;;;;;;14.18;7.70;;;7.80;99.90;;;-148.53;100.00;63986.66;5002187;28;20584;-74
2023/02/20 08:10:27;;;;;;;15.23;8.00;;;7.80;99.90;;;-148.53;100.00;63986.66;5008428;28;20041;-74
2023/02/20 08:12:55;;;;;;;13.05;7.95;;;7.80;99.90;;;-148.53;100.00;63986.66;5007359;28;20037;-76
2023/02/20 08:15:22;;;;;;;15.52;8.60;;;7.90;99.90;;;-148.53;100.00;63986.66;5015973;28;20044;-75
2023/02/20 08:17:48;;;;;;;13.60;8.50;;;7.90;99.90;;;-148.53;100.00;63986.66;5006558;28;20029;-76
2023/02/20 08:20:17;;;;;;;17.67;8.77;;;7.90;99.90;;;-148.53;100.00;63986.66;5004971;28;20481;-75
2023/02/20 08:22:44;;;;;;;18.95;8.23;;;8.00;99.90;;;-148.53;100.00;63986.66;5009839;28;20112;-74
2023/02/20 08:25:11;;;;;;;16.33;8.40;;;8.00;99.90;;;-148.53;100.00;63986.66;5018404;28;20501;-75
2023/02/20 08:27:41;;;;;;;14.90;8.95;;;8.00;99.90;;;-148.53;100.00;63986.66;5010155;28;20050;-75
2023/02/20 08:30:13;;;;;;;15.32;9.38;;;8.00;99.90;;;-148.53;100.00;63986.66;5005954;28;20042;-74
2023/02/20 08:32:39;;;;;;;15.15;9.40;;;8.10;99.90;;;-148.53;100.00;63986.66;5007610;28;20044;-75
2023/02/20 08:35:05;;;;;;;16.00;9.95;;;8.10;99.90;;;-148.53;100.00;63986.66;5008444;28;20354;-74
2023/02/20 08:37:30;;;;;;;15.00;9.45;;;8.10;99.90;;;-148.53;100.00;63986.66;5005999;28;20489;-75
2023/02/20 08:39:56;;;;;;;17.25;10.35;;;8.10;99.90;;;-148.53;100.00;63986.66;5024861;28;20049;-74
2023/02/20 08:42:22;;;;;;;20.05;11.25;;;8.20;99.90;;;-148.53;100.00;63986.66;5008161;28;20037;-75
2023/02/20 08:44:48;;;;;;;19.55;11.80;;;8.20;99.90;;;-148.53;100.00;63986.66;5009507;28;20042;-75
2023/02/20 08:47:13;;;;;;;18.38;11.10;;;8.30;99.90;;;-148.53;100.00;63986.66;5010031;28;20050;-77
2023/02/20 08:49:39;;;;;;;19.48;11.65;;;8.40;99.90;;;-148.53;100.00;63986.66;5005500;28;20056;-76
2023/02/20 08:52:05;;;;;;;18.15;11.88;;;8.50;99.90;;;-148.53;100.00;63986.66;5007636;28;20501;-77
2023/02/20 08:54:31;;;;;;;16.92;11.45;;;8.50;99.90;;;-148.53;100.00;63986.66;5010161;28;20038;-75
2023/02/20 08:56:56;;;;;;;20.83;13.55;;;8.60;99.90;;;-148.53;100.00;63986.66;5007862;28;20042;-77
2023/02/20 08:59:22;;;;;;;21.20;12.48;;;8.60;99.90;;;-148.53;100.00;63986.66;4997932;28;20133;-77
2023/02/20 09:01:48;;;;;;;17.92;12.32;;;8.70;99.90;;;-148.53;100.00;63986.66;5018395;28;20034;-77
2023/02/20 09:04:15;;;;;;;21.40;13.77;;;8.80;99.90;;;-148.53;100.00;63986.66;5022483;28;20037;-75
2023/02/20 09:06:41;;;;;;;18.48;12.68;;;8.90;99.90;;;-148.53;100.00;63986.66;5008535;28;20046;-76
2023/02/20 09:09:07;;;;;;;21.23;13.45;;;8.90;99.90;;;-148.53;100.00;63986.66;4994865;28;20388;-77
2023/02/20 09:11:33;;;;;;;25.83;14.45;;;9.10;99.90;;;-148.53;100.00;63986.66;5006090;28;20315;-75
2023/02/20 09:13:58;;;;;;;20.40;13.82;;;9.10;99.90;;;-148.53;100.00;63986.66;5005921;28;20038;-78
2023/02/20 09:16:24;;;;;;;27.65;14.57;;;9.20;99.90;;;-148.53;100.00;63986.66;5003398;28;20037;-76
2023/02/20 09:18:50;;;;;;;22.55;14.45;;;9.10;99.90;;;-148.53;100.00;63986.66;5004924;28;20434;-78
2023/02/20 09:21:18;;;;;;;23.65;14.20;;;9.00;99.90;;;-148.53;100.00;63986.66;5008956;28;20046;-77
2023/02/20 09:23:44;;;;;;;;;;;9.10;99.90;;;-148.53;100.00;63986.66;5004094;28;20038;-76
2023/02/20 09:26:10;;;;;;;23.40;14.43;;;9.00;99.90;;;-148.53;100.00;63986.66;5009035;28;19922;-74
2023/02/20 09:28:35;;;;;;;23.25;15.73;;;9.00;99.90;;;-148.53;100.00;63986.66;5006647;28;20046;-75
2023/02/20 09:31:01;;;;;;;26.73;15.55;;;8.80;99.90;;;-148.53;100.00;63986.66;4997397;28;20035;-77
2023/02/20 09:33:27;;;;;;;27.65;16.27;;;8.70;99.90;;;-148.53;100.00;63986.66;5005306;28;20037;-76
2023/02/20 09:35:54;;;;;;;27.92;16.33;;;8.70;99.90;;;-148.53;100.00;63986.66;5006406;28;20038;-75
2023/02/20 09:38:21;;;;;;;26.70;16.42;;;8.60;99.90;;;-148.53;100.00;63986.66;5012669;28;20038;-76
2023/02/20 09:40:53;;;;;;;30.55;17.05;;;8.50;99.90;;;-148.53;100.00;63986.66;5002600;28;20034;-74
2023/02/20 09:43:55;;;;;;;24.98;16.65;;;8.50;99.90;;;-148.53;100.00;63986.66;5000927;28;20042;-75
2023/02/20 09:46:24;;;;;;;27.27;17.38;;;8.50;99.90;;;-148.53;100.00;63986.66;5001667;28;20623;-77
2023/02/20 09:49:19;;;;;;;25.35;17.25;;;8.50;99.90;;;-148.53;100.00;63986.66;4998377;28;20094;-75
2023/02/20 09:51:53;;;;;;;29.60;17.63;;;8.50;99.90;;;-148.53;100.00;63986.66;5008946;28;20061;-76
2023/02/20 09:54:33;;;;;;;28.73;17.92;;;8.50;99.90;;;-148.53;100.00;63986.66;5013110;28;20393;-74
2023/02/20 09:57:05;;;;;;;27.65;18.17;;;8.40;99.90;;;-148.53;100.00;63986.66;5006930;28;20500;-75
2023/02/20 09:59:51;;;;;;;29.35;18.60;;;8.40;99.90;;;-148.53;100.00;63986.66;5010204;28;20049;-75
2023/02/20 10:02:28;;;;;;;28.52;16.90;;;8.50;99.90;;;-148.53;100.00;63986.66;5008641;28;20382;-75
2023/02/20 10:05:03;;;;;;;27.55;18.52;;;8.60;99.90;;;-148.53;100.00;63986.66;5006772;28;20034;-75
2023/02/20 10:07:33;;;;;;;28.67;17.30;;;8.60;99.90;;;-148.53;100.00;63986.66;5001269;28;20030;-75
2023/02/20 10:10:17;;;;;;;30.00;17.35;;;8.60;99.90;;;-148.53;100.00;63986.66;5003864;28;20092;-76
2023/02/20 10:13:30;;;;;;;26.45;16.58;;;8.60;99.90;;;-148.53;100.00;63986.66;4989086;28;20070;-76
2023/02/20 10:16:24;;;;;;;26.20;17.13;;;8.50;99.90;;;-148.53;100.00;63986.66;4996959;28;20092;-75
2023/02/20 10:19:15;;;;;;;27.77;17.33;;;8.50;99.90;;;-148.53;100.00;63986.66;5002595;28;20108;-75
2023/02/20 10:22:14;;;;;;;26.85;16.20;;;8.60;99.90;;;-148.53;100.00;63986.66;5002219;28;20038;-76
2023/02/20 10:25:01;;;;;;;27.15;16.63;;;8.60;99.90;;;-148.53;100.00;63986.66;4998382;28;20049;-75
2023/02/20 10:27:44;;;;;;;28.52;16.40;;;8.60;99.90;;;-148.53;100.00;63986.66;5008352;28;20041;-75
2023/02/20 10:30:17;;;;;;;28.58;16.70;;;8.60;99.90;;;-148.53;100.00;63986.66;5004732;28;20485;-75